sensor_id;sensor_type;location;lat;lon;timestamp;P1;durP1;ratioP1;P2;durP2;ratioP2
46363;SDS011;32071;49.036;9.344;2023-07-30T00:00:36;6.20;;;5.10;;
46363;SDS011;32071;49.036;9.344;2023-07-30T00:03:02;5.90;;;5.37;;
46363;SDS011;32071;49.036;9.344;2023-07-30T00:05:28;6.80;;;5.70;;
46363;SDS011;32071;49.036;9.344;2023-07-30T00:07:53;6.10;;;5.27;;
46363;SDS011;32071;49.036;9.344;2023-07-30T00:10:19;7.83;;;5.33;;
46363;SDS011;32071;49.036;9.344;2023-07-30T00:12:45;5.97;;;5.10;;
46363;SDS011;32071;49.036;9.344;2023-07-30T00:15:10;6.00;;;5.40;;
46363;SDS011;32071;49.036;9.344;2023-07-30T00:17:37;5.90;;;5.20;;
46363;SDS011;32071;49.036;9.344;2023-07-30T00:20:04;6.10;;;5.57;;
46363;SDS011;32071;49.036;9.344;2023-07-30T00:22:30;8.20;;;6.00;;
46363;SDS011;32071;49.036;9.344;2023-07-30T00:24:56;8.73;;;5.63;;
46363;SDS011;32071;49.036;9.344;2023-07-30T00:27:21;6.40;;;5.60;;
46363;SDS011;32071;49.036;9.344;2023-07-30T00:29:47;7.70;;;5.30;;
46363;SDS011;32071;49.036;9.344;2023-07-30T00:32:12;7.83;;;5.63;;
46363;SDS011;32071;49.036;9.344;2023-07-30T00:34:40;7.40;;;5.60;;
46363;SDS011;32071;49.036;9.344;2023-07-30T00:37:06;6.00;;;5.20;;
46363;SDS011;32071;49.036;9.344;2023-07-30T00:39:32;6.53;;;5.70;;
46363;SDS011;32071;49.036;9.344;2023-07-30T00:41:57;5.93;;;5.43;;
46363;SDS011;32071;49.036;9.344;2023-07-30T00:44:23;5.47;;;3.87;;
46363;SDS011;32071;49.036;9.344;2023-07-30T00:46:48;4.23;;;3.70;;
46363;SDS011;32071;49.036;9.344;2023-07-30T00:49:14;6.17;;;4.40;;
46363;SDS011;32071;49.036;9.344;2023-07-30T00:51:40;4.40;;;4.00;;
46363;SDS011;32071;49.036;9.344;2023-07-30T00:54:07;4.17;;;3.80;;
46363;SDS011;32071;49.036;9.344;2023-07-30T00:56:32;4.60;;;4.17;;
46363;SDS011;32071;49.036;9.344;2023-07-30T00:58:58;4.97;;;4.47;;
46363;SDS011;32071;49.036;9.344;2023-07-30T01:01:24;5.50;;;4.10;;
46363;SDS011;32071;49.036;9.344;2023-07-30T01:03:50;4.60;;;3.90;;
46363;SDS011;32071;49.036;9.344;2023-07-30T01:06:16;4.37;;;4.03;;
46363;SDS011;32071;49.036;9.344;2023-07-30T01:08:42;4.80;;;4.20;;
46363;SDS011;32071;49.036;9.344;2023-07-30T01:11:08;5.17;;;4.00;;
46363;SDS011;32071;49.036;9.344;2023-07-30T01:13:34;3.90;;;3.60;;
46363;SDS011;32071;49.036;9.344;2023-07-30T01:16:00;3.57;;;3.27;;
46363;SDS011;32071;49.036;9.344;2023-07-30T01:18:28;3.67;;;3.37;;
46363;SDS011;32071;49.036;9.344;2023-07-30T01:20:57;3.53;;;3.23;;
46363;SDS011;32071;49.036;9.344;2023-07-30T01:23:24;5.40;;;3.80;;
46363;SDS011;32071;49.036;9.344;2023-07-30T01:25:51;4.67;;;3.90;;
46363;SDS011;32071;49.036;9.344;2023-07-30T01:28:46;5.20;;;4.03;;
46363;SDS011;32071;49.036;9.344;2023-07-30T01:31:14;5.20;;;4.33;;
46363;SDS011;32071;49.036;9.344;2023-07-30T01:33:41;4.10;;;3.80;;
46363;SDS011;32071;49.036;9.344;2023-07-30T01:36:08;5.20;;;4.67;;
46363;SDS011;32071;49.036;9.344;2023-07-30T01:38:37;4.77;;;4.37;;
46363;SDS011;32071;49.036;9.344;2023-07-30T01:41:04;4.70;;;4.17;;
46363;SDS011;32071;49.036;9.344;2023-07-30T01:43:30;5.03;;;4.03;;
46363;SDS011;32071;49.036;9.344;2023-07-30T01:45:56;4.67;;;3.63;;
46363;SDS011;32071;49.036;9.344;2023-07-30T01:48:21;4.00;;;3.60;;
46363;SDS011;32071;49.036;9.344;2023-07-30T01:50:47;4.30;;;3.90;;
46363;SDS011;32071;49.036;9.344;2023-07-30T01:53:13;4.40;;;4.00;;
46363;SDS011;32071;49.036;9.344;2023-07-30T01:55:39;6.53;;;4.70;;
46363;SDS011;32071;49.036;9.344;2023-07-30T01:58:08;5.83;;;3.90;;
46363;SDS011;32071;49.036;9.344;2023-07-30T02:00:34;4.47;;;4.07;;
46363;SDS011;32071;49.036;9.344;2023-07-30T02:03:00;4.20;;;3.80;;
46363;SDS011;32071;49.036;9.344;2023-07-30T02:05:26;7.90;;;4.17;;
46363;SDS011;32071;49.036;9.344;2023-07-30T02:07:51;5.40;;;4.40;;
46363;SDS011;32071;49.036;9.344;2023-07-30T02:10:17;8.93;;;4.00;;
46363;SDS011;32071;49.036;9.344;2023-07-30T02:12:42;6.07;;;4.03;;
46363;SDS011;32071;49.036;9.344;2023-07-30T02:15:08;4.47;;;4.07;;
46363;SDS011;32071;49.036;9.344;2023-07-30T02:17:34;6.07;;;4.13;;
46363;SDS011;32071;49.036;9.344;2023-07-30T02:19:59;4.57;;;4.17;;
46363;SDS011;32071;49.036;9.344;2023-07-30T02:22:25;4.67;;;4.20;;
46363;SDS011;32071;49.036;9.344;2023-07-30T02:24:50;6.40;;;4.43;;
46363;SDS011;32071;49.036;9.344;2023-07-30T02:27:16;5.43;;;3.50;;
46363;SDS011;32071;49.036;9.344;2023-07-30T02:29:41;3.40;;;2.80;;
46363;SDS011;32071;49.036;9.344;2023-07-30T02:32:07;3.73;;;3.43;;
46363;SDS011;32071;49.036;9.344;2023-07-30T02:34:33;4.07;;;3.70;;
46363;SDS011;32071;49.036;9.344;2023-07-30T02:36:58;4.03;;;3.50;;
46363;SDS011;32071;49.036;9.344;2023-07-30T02:39:24;3.37;;;3.07;;
46363;SDS011;32071;49.036;9.344;2023-07-30T02:41:50;3.17;;;2.93;;
46363;SDS011;32071;49.036;9.344;2023-07-30T02:44:15;4.20;;;2.63;;
46363;SDS011;32071;49.036;9.344;2023-07-30T02:46:41;3.40;;;2.57;;
46363;SDS011;32071;49.036;9.344;2023-07-30T02:49:06;3.73;;;2.47;;
46363;SDS011;32071;49.036;9.344;2023-07-30T02:51:33;4.70;;;2.73;;
46363;SDS011;32071;49.036;9.344;2023-07-30T02:54:03;2.60;;;2.40;;
46363;SDS011;32071;49.036;9.344;2023-07-30T02:56:29;2.43;;;2.23;;
46363;SDS011;32071;49.036;9.344;2023-07-30T02:58:55;4.10;;;2.40;;
46363;SDS011;32071;49.036;9.344;2023-07-30T03:01:20;4.87;;;2.57;;
46363;SDS011;32071;49.036;9.344;2023-07-30T03:03:46;3.63;;;2.80;;
46363;SDS011;32071;49.036;9.344;2023-07-30T03:06:11;3.17;;;2.80;;
46363;SDS011;32071;49.036;9.344;2023-07-30T03:08:37;5.67;;;2.43;;
46363;SDS011;32071;49.036;9.344;2023-07-30T03:11:03;3.30;;;3.00;;
46363;SDS011;32071;49.036;9.344;2023-07-30T03:13:29;3.10;;;2.67;;
46363;SDS011;32071;49.036;9.344;2023-07-30T03:15:54;2.40;;;2.20;;
46363;SDS011;32071;49.036;9.344;2023-07-30T03:18:20;3.73;;;2.67;;
46363;SDS011;32071;49.036;9.344;2023-07-30T03:20:45;5.73;;;3.17;;
46363;SDS011;32071;49.036;9.344;2023-07-30T03:23:11;2.63;;;2.43;;
46363;SDS011;32071;49.036;9.344;2023-07-30T03:25:37;2.93;;;2.73;;
46363;SDS011;32071;49.036;9.344;2023-07-30T03:28:02;10.73;;;3.03;;
46363;SDS011;32071;49.036;9.344;2023-07-30T03:30:28;5.93;;;2.70;;
46363;SDS011;32071;49.036;9.344;2023-07-30T03:32:53;2.83;;;2.63;;
46363;SDS011;32071;49.036;9.344;2023-07-30T03:35:19;2.83;;;2.60;;
46363;SDS011;32071;49.036;9.344;2023-07-30T03:37:44;2.33;;;2.23;;
46363;SDS011;32071;49.036;9.344;2023-07-30T03:40:10;3.23;;;2.93;;
46363;SDS011;32071;49.036;9.344;2023-07-30T03:42:35;3.50;;;3.20;;
46363;SDS011;32071;49.036;9.344;2023-07-30T03:45:01;9.03;;;2.77;;
46363;SDS011;32071;49.036;9.344;2023-07-30T03:47:27;3.60;;;2.60;;
46363;SDS011;32071;49.036;9.344;2023-07-30T03:49:52;4.50;;;2.53;;
46363;SDS011;32071;49.036;9.344;2023-07-30T03:52:18;4.90;;;2.70;;
46363;SDS011;32071;49.036;9.344;2023-07-30T03:54:43;2.87;;;2.67;;
46363;SDS011;32071;49.036;9.344;2023-07-30T03:57:09;3.90;;;2.67;;
46363;SDS011;32071;49.036;9.344;2023-07-30T03:59:34;3.30;;;3.00;;
46363;SDS011;32071;49.036;9.344;2023-07-30T04:02:00;5.27;;;2.90;;
46363;SDS011;32071;49.036;9.344;2023-07-30T04:04:25;3.43;;;3.13;;
46363;SDS011;32071;49.036;9.344;2023-07-30T04:06:51;6.67;;;3.50;;
46363;SDS011;32071;49.036;9.344;2023-07-30T04:09:16;7.00;;;3.00;;
46363;SDS011;32071;49.036;9.344;2023-07-30T04:11:42;7.07;;;3.47;;
46363;SDS011;32071;49.036;9.344;2023-07-30T04:14:08;7.30;;;2.80;;
46363;SDS011;32071;49.036;9.344;2023-07-30T04:16:34;3.87;;;3.20;;
46363;SDS011;32071;49.036;9.344;2023-07-30T04:18:59;8.00;;;2.70;;
46363;SDS011;32071;49.036;9.344;2023-07-30T04:21:25;4.73;;;2.97;;
46363;SDS011;32071;49.036;9.344;2023-07-30T04:23:50;3.57;;;3.13;;
46363;SDS011;32071;49.036;9.344;2023-07-30T04:26:16;3.90;;;3.07;;
46363;SDS011;32071;49.036;9.344;2023-07-30T04:28:42;3.50;;;3.20;;
46363;SDS011;32071;49.036;9.344;2023-07-30T04:31:08;3.37;;;3.07;;
46363;SDS011;32071;49.036;9.344;2023-07-30T04:33:33;3.40;;;3.10;;
46363;SDS011;32071;49.036;9.344;2023-07-30T04:35:59;4.60;;;4.20;;
46363;SDS011;32071;49.036;9.344;2023-07-30T04:38:24;3.40;;;2.90;;
46363;SDS011;32071;49.036;9.344;2023-07-30T04:40:50;4.53;;;4.13;;
46363;SDS011;32071;49.036;9.344;2023-07-30T04:43:15;2.87;;;2.67;;
46363;SDS011;32071;49.036;9.344;2023-07-30T04:45:42;5.00;;;3.37;;
46363;SDS011;32071;49.036;9.344;2023-07-30T04:48:07;4.87;;;2.93;;
46363;SDS011;32071;49.036;9.344;2023-07-30T04:50:33;3.70;;;3.13;;
46363;SDS011;32071;49.036;9.344;2023-07-30T04:53:00;3.33;;;2.97;;
46363;SDS011;32071;49.036;9.344;2023-07-30T04:55:25;3.73;;;3.43;;
46363;SDS011;32071;49.036;9.344;2023-07-30T04:57:51;7.63;;;3.30;;
46363;SDS011;32071;49.036;9.344;2023-07-30T05:00:16;3.97;;;3.57;;
46363;SDS011;32071;49.036;9.344;2023-07-30T05:02:42;4.90;;;2.60;;
46363;SDS011;32071;49.036;9.344;2023-07-30T05:05:08;3.53;;;3.23;;
46363;SDS011;32071;49.036;9.344;2023-07-30T05:07:34;2.87;;;2.57;;
46363;SDS011;32071;49.036;9.344;2023-07-30T05:09:59;5.30;;;3.20;;
46363;SDS011;32071;49.036;9.344;2023-07-30T05:12:25;2.63;;;2.43;;
46363;SDS011;32071;49.036;9.344;2023-07-30T05:14:50;4.23;;;3.07;;
46363;SDS011;32071;49.036;9.344;2023-07-30T05:17:16;4.60;;;3.03;;
46363;SDS011;32071;49.036;9.344;2023-07-30T05:19:42;3.10;;;2.70;;
46363;SDS011;32071;49.036;9.344;2023-07-30T05:22:08;6.20;;;2.70;;
46363;SDS011;32071;49.036;9.344;2023-07-30T05:24:34;3.03;;;2.70;;
46363;SDS011;32071;49.036;9.344;2023-07-30T05:27:01;3.60;;;3.00;;
46363;SDS011;32071;49.036;9.344;2023-07-30T05:29:27;4.47;;;3.13;;
46363;SDS011;32071;49.036;9.344;2023-07-30T05:31:53;5.37;;;3.13;;
46363;SDS011;32071;49.036;9.344;2023-07-30T05:34:18;4.03;;;3.63;;
46363;SDS011;32071;49.036;9.344;2023-07-30T05:36:44;3.57;;;3.10;;
46363;SDS011;32071;49.036;9.344;2023-07-30T05:39:09;3.03;;;2.73;;
46363;SDS011;32071;49.036;9.344;2023-07-30T05:41:35;7.87;;;3.70;;
46363;SDS011;32071;49.036;9.344;2023-07-30T05:44:00;4.17;;;3.77;;
46363;SDS011;32071;49.036;9.344;2023-07-30T05:46:26;3.57;;;3.27;;
46363;SDS011;32071;49.036;9.344;2023-07-30T05:48:52;3.80;;;3.50;;
46363;SDS011;32071;49.036;9.344;2023-07-30T05:51:17;3.40;;;2.83;;
46363;SDS011;32071;49.036;9.344;2023-07-30T05:53:43;5.93;;;3.20;;
46363;SDS011;32071;49.036;9.344;2023-07-30T05:56:08;3.30;;;3.00;;
46363;SDS011;32071;49.036;9.344;2023-07-30T05:58:34;3.47;;;3.00;;
46363;SDS011;32071;49.036;9.344;2023-07-30T06:00:59;4.80;;;3.53;;
46363;SDS011;32071;49.036;9.344;2023-07-30T06:03:25;4.17;;;3.70;;
46363;SDS011;32071;49.036;9.344;2023-07-30T06:05:50;6.13;;;3.87;;
46363;SDS011;32071;49.036;9.344;2023-07-30T06:08:16;5.00;;;3.47;;
46363;SDS011;32071;49.036;9.344;2023-07-30T06:10:41;3.83;;;3.43;;
46363;SDS011;32071;49.036;9.344;2023-07-30T06:13:07;3.73;;;3.43;;
46363;SDS011;32071;49.036;9.344;2023-07-30T06:15:33;5.73;;;3.60;;
46363;SDS011;32071;49.036;9.344;2023-07-30T06:18:00;3.30;;;3.00;;
46363;SDS011;32071;49.036;9.344;2023-07-30T06:20:27;3.10;;;2.83;;
46363;SDS011;32071;49.036;9.344;2023-07-30T06:22:53;3.70;;;3.40;;
46363;SDS011;32071;49.036;9.344;2023-07-30T06:25:18;3.13;;;2.93;;
46363;SDS011;32071;49.036;9.344;2023-07-30T06:27:44;3.37;;;3.07;;
46363;SDS011;32071;49.036;9.344;2023-07-30T06:30:10;3.47;;;3.10;;
46363;SDS011;32071;49.036;9.344;2023-07-30T06:32:36;4.27;;;3.30;;
46363;SDS011;32071;49.036;9.344;2023-07-30T06:35:01;2.87;;;2.67;;
46363;SDS011;32071;49.036;9.344;2023-07-30T06:37:28;4.80;;;2.83;;
46363;SDS011;32071;49.036;9.344;2023-07-30T06:39:53;2.60;;;2.40;;
46363;SDS011;32071;49.036;9.344;2023-07-30T06:42:19;3.10;;;2.80;;
46363;SDS011;32071;49.036;9.344;2023-07-30T06:44:44;4.30;;;3.13;;
46363;SDS011;32071;49.036;9.344;2023-07-30T06:47:10;3.73;;;2.60;;
46363;SDS011;32071;49.036;9.344;2023-07-30T06:49:36;2.70;;;2.50;;
46363;SDS011;32071;49.036;9.344;2023-07-30T06:52:02;2.40;;;2.20;;
46363;SDS011;32071;49.036;9.344;2023-07-30T06:54:29;5.30;;;3.33;;
46363;SDS011;32071;49.036;9.344;2023-07-30T06:56:55;4.10;;;2.70;;
46363;SDS011;32071;49.036;9.344;2023-07-30T06:59:21;2.70;;;2.47;;
46363;SDS011;32071;49.036;9.344;2023-07-30T07:01:46;2.90;;;2.20;;
46363;SDS011;32071;49.036;9.344;2023-07-30T07:04:12;3.73;;;2.53;;
46363;SDS011;32071;49.036;9.344;2023-07-30T07:06:37;2.50;;;2.30;;
46363;SDS011;32071;49.036;9.344;2023-07-30T07:09:03;2.23;;;2.13;;
46363;SDS011;32071;49.036;9.344;2023-07-30T07:11:28;3.10;;;2.27;;
46363;SDS011;32071;49.036;9.344;2023-07-30T07:13:54;2.10;;;2.00;;
46363;SDS011;32071;49.036;9.344;2023-07-30T07:16:19;2.63;;;2.33;;
46363;SDS011;32071;49.036;9.344;2023-07-30T07:18:45;2.53;;;2.33;;
46363;SDS011;32071;49.036;9.344;2023-07-30T07:21:11;1.80;;;1.70;;
46363;SDS011;32071;49.036;9.344;2023-07-30T07:23:37;1.87;;;1.63;;
46363;SDS011;32071;49.036;9.344;2023-07-30T07:26:02;3.73;;;2.27;;
46363;SDS011;32071;49.036;9.344;2023-07-30T07:28:28;3.13;;;2.10;;
46363;SDS011;32071;49.036;9.344;2023-07-30T07:30:54;2.53;;;2.33;;
46363;SDS011;32071;49.036;9.344;2023-07-30T07:33:20;2.27;;;2.07;;
46363;SDS011;32071;49.036;9.344;2023-07-30T07:35:46;2.37;;;2.17;;
46363;SDS011;32071;49.036;9.344;2023-07-30T07:38:12;3.13;;;2.83;;
46363;SDS011;32071;49.036;9.344;2023-07-30T07:40:38;2.93;;;2.63;;
46363;SDS011;32071;49.036;9.344;2023-07-30T07:43:06;2.23;;;2.03;;
46363;SDS011;32071;49.036;9.344;2023-07-30T07:45:32;2.80;;;2.00;;
46363;SDS011;32071;49.036;9.344;2023-07-30T07:47:58;2.70;;;2.50;;
46363;SDS011;32071;49.036;9.344;2023-07-30T07:50:24;3.30;;;2.50;;
46363;SDS011;32071;49.036;9.344;2023-07-30T07:52:49;3.50;;;2.60;;
46363;SDS011;32071;49.036;9.344;2023-07-30T07:55:16;4.30;;;4.00;;
46363;SDS011;32071;49.036;9.344;2023-07-30T07:57:41;3.53;;;2.40;;
46363;SDS011;32071;49.036;9.344;2023-07-30T08:00:07;2.10;;;2.00;;
46363;SDS011;32071;49.036;9.344;2023-07-30T08:02:34;2.67;;;2.47;;
46363;SDS011;32071;49.036;9.344;2023-07-30T08:04:59;2.90;;;2.60;;
46363;SDS011;32071;49.036;9.344;2023-07-30T08:07:25;2.70;;;2.50;;
46363;SDS011;32071;49.036;9.344;2023-07-30T08:09:50;2.60;;;2.40;;
46363;SDS011;32071;49.036;9.344;2023-07-30T08:12:16;2.30;;;2.10;;
46363;SDS011;32071;49.036;9.344;2023-07-30T08:14:44;2.23;;;2.10;;
46363;SDS011;32071;49.036;9.344;2023-07-30T08:17:09;2.80;;;2.60;;
46363;SDS011;32071;49.036;9.344;2023-07-30T08:19:35;2.60;;;2.40;;
46363;SDS011;32071;49.036;9.344;2023-07-30T08:22:00;2.70;;;2.50;;
46363;SDS011;32071;49.036;9.344;2023-07-30T08:24:26;2.67;;;2.47;;
46363;SDS011;32071;49.036;9.344;2023-07-30T08:26:51;2.90;;;2.70;;
46363;SDS011;32071;49.036;9.344;2023-07-30T08:29:17;6.70;;;3.10;;
46363;SDS011;32071;49.036;9.344;2023-07-30T08:31:42;3.20;;;2.73;;
46363;SDS011;32071;49.036;9.344;2023-07-30T08:34:08;3.50;;;3.20;;
46363;SDS011;32071;49.036;9.344;2023-07-30T08:36:33;3.37;;;3.13;;
46363;SDS011;32071;49.036;9.344;2023-07-30T08:38:59;4.33;;;2.90;;
46363;SDS011;32071;49.036;9.344;2023-07-30T08:41:26;3.60;;;3.30;;
46363;SDS011;32071;49.036;9.344;2023-07-30T08:43:51;2.90;;;2.70;;
46363;SDS011;32071;49.036;9.344;2023-07-30T08:46:18;3.47;;;3.07;;
46363;SDS011;32071;49.036;9.344;2023-07-30T08:48:43;3.53;;;3.23;;
46363;SDS011;32071;49.036;9.344;2023-07-30T08:51:09;3.50;;;3.20;;
46363;SDS011;32071;49.036;9.344;2023-07-30T08:53:36;3.40;;;3.10;;
46363;SDS011;32071;49.036;9.344;2023-07-30T08:56:02;3.00;;;2.67;;
46363;SDS011;32071;49.036;9.344;2023-07-30T08:58:30;3.30;;;3.07;;
46363;SDS011;32071;49.036;9.344;2023-07-30T09:00:58;2.87;;;2.67;;
46363;SDS011;32071;49.036;9.344;2023-07-30T09:03:26;2.97;;;2.77;;
46363;SDS011;32071;49.036;9.344;2023-07-30T09:05:53;3.40;;;3.10;;
46363;SDS011;32071;49.036;9.344;2023-07-30T09:08:18;3.53;;;3.23;;
46363;SDS011;32071;49.036;9.344;2023-07-30T09:10:44;3.53;;;3.23;;
46363;SDS011;32071;49.036;9.344;2023-07-30T09:13:10;3.20;;;2.90;;
46363;SDS011;32071;49.036;9.344;2023-07-30T09:15:36;3.20;;;2.93;;
46363;SDS011;32071;49.036;9.344;2023-07-30T09:18:06;3.40;;;3.10;;
46363;SDS011;32071;49.036;9.344;2023-07-30T09:20:40;3.00;;;2.80;;
46363;SDS011;32071;49.036;9.344;2023-07-30T09:23:07;3.60;;;3.40;;
46363;SDS011;32071;49.036;9.344;2023-07-30T09:25:34;3.97;;;3.67;;
46363;SDS011;32071;49.036;9.344;2023-07-30T09:28:00;3.60;;;3.30;;
46363;SDS011;32071;49.036;9.344;2023-07-30T09:30:26;4.03;;;3.73;;
46363;SDS011;32071;49.036;9.344;2023-07-30T09:32:55;3.63;;;3.33;;
46363;SDS011;32071;49.036;9.344;2023-07-30T09:35:22;4.00;;;3.70;;
46363;SDS011;32071;49.036;9.344;2023-07-30T09:37:50;4.20;;;3.90;;
46363;SDS011;32071;49.036;9.344;2023-07-30T09:40:30;4.50;;;4.10;;
46363;SDS011;32071;49.036;9.344;2023-07-30T09:43:04;4.57;;;3.90;;
46363;SDS011;32071;49.036;9.344;2023-07-30T09:45:33;3.50;;;3.20;;
46363;SDS011;32071;49.036;9.344;2023-07-30T09:48:01;4.40;;;4.00;;
46363;SDS011;32071;49.036;9.344;2023-07-30T09:50:29;3.23;;;3.03;;
46363;SDS011;32071;49.036;9.344;2023-07-30T09:52:55;3.57;;;3.27;;
46363;SDS011;32071;49.036;9.344;2023-07-30T09:55:22;3.83;;;3.53;;
46363;SDS011;32071;49.036;9.344;2023-07-30T09:57:48;4.33;;;3.40;;
46363;SDS011;32071;49.036;9.344;2023-07-30T10:00:14;3.90;;;3.60;;
46363;SDS011;32071;49.036;9.344;2023-07-30T10:02:41;3.60;;;3.30;;
46363;SDS011;32071;49.036;9.344;2023-07-30T10:05:12;3.50;;;3.13;;
46363;SDS011;32071;49.036;9.344;2023-07-30T10:07:52;4.03;;;3.73;;
46363;SDS011;32071;49.036;9.344;2023-07-30T10:10:20;3.60;;;3.30;;
46363;SDS011;32071;49.036;9.344;2023-07-30T10:12:49;4.67;;;3.40;;
46363;SDS011;32071;49.036;9.344;2023-07-30T10:15:18;3.80;;;3.50;;
46363;SDS011;32071;49.036;9.344;2023-07-30T10:17:45;3.50;;;3.20;;
46363;SDS011;32071;49.036;9.344;2023-07-30T10:22:53;4.00;;;3.70;;
46363;SDS011;32071;49.036;9.344;2023-07-30T10:25:27;4.80;;;3.03;;
46363;SDS011;32071;49.036;9.344;2023-07-30T10:28:25;6.53;;;3.87;;
46363;SDS011;32071;49.036;9.344;2023-07-30T10:30:58;3.83;;;3.53;;
46363;SDS011;32071;49.036;9.344;2023-07-30T10:33:46;3.80;;;3.00;;
46363;SDS011;32071;49.036;9.344;2023-07-30T10:36:17;4.00;;;3.40;;
46363;SDS011;32071;49.036;9.344;2023-07-30T10:39:11;5.00;;;3.23;;
46363;SDS011;32071;49.036;9.344;2023-07-30T10:41:37;3.80;;;3.50;;
46363;SDS011;32071;49.036;9.344;2023-07-30T10:44:03;4.10;;;3.37;;
46363;SDS011;32071;49.036;9.344;2023-07-30T10:46:30;5.10;;;3.73;;
46363;SDS011;32071;49.036;9.344;2023-07-30T10:48:57;5.10;;;3.83;;
46363;SDS011;32071;49.036;9.344;2023-07-30T10:51:22;3.47;;;3.17;;
46363;SDS011;32071;49.036;9.344;2023-07-30T10:53:49;3.63;;;3.33;;
46363;SDS011;32071;49.036;9.344;2023-07-30T10:56:16;3.97;;;3.67;;
46363;SDS011;32071;49.036;9.344;2023-07-30T10:58:42;3.43;;;3.13;;
46363;SDS011;32071;49.036;9.344;2023-07-30T11:01:13;3.97;;;3.63;;
46363;SDS011;32071;49.036;9.344;2023-07-30T11:03:39;4.10;;;3.70;;
46363;SDS011;32071;49.036;9.344;2023-07-30T11:06:04;3.80;;;3.30;;
46363;SDS011;32071;49.036;9.344;2023-07-30T11:08:40;4.03;;;3.73;;
46363;SDS011;32071;49.036;9.344;2023-07-30T11:11:08;4.00;;;3.57;;
46363;SDS011;32071;49.036;9.344;2023-07-30T11:13:39;3.07;;;2.87;;
46363;SDS011;32071;49.036;9.344;2023-07-30T11:16:06;3.70;;;3.40;;
46363;SDS011;32071;49.036;9.344;2023-07-30T11:18:32;3.30;;;3.10;;
46363;SDS011;32071;49.036;9.344;2023-07-30T11:23:37;2.90;;;2.70;;
46363;SDS011;32071;49.036;9.344;2023-07-30T11:26:07;3.47;;;3.17;;
46363;SDS011;32071;49.036;9.344;2023-07-30T11:28:35;3.33;;;3.03;;
46363;SDS011;32071;49.036;9.344;2023-07-30T11:31:02;3.80;;;3.17;;
46363;SDS011;32071;49.036;9.344;2023-07-30T11:33:32;3.27;;;2.80;;
46363;SDS011;32071;49.036;9.344;2023-07-30T11:35:59;2.70;;;2.50;;
46363;SDS011;32071;49.036;9.344;2023-07-30T11:38:26;3.50;;;3.00;;
46363;SDS011;32071;49.036;9.344;2023-07-30T11:40:53;3.50;;;3.20;;
46363;SDS011;32071;49.036;9.344;2023-07-30T11:43:20;3.63;;;3.03;;
46363;SDS011;32071;49.036;9.344;2023-07-30T11:45:46;3.90;;;2.80;;
46363;SDS011;32071;49.036;9.344;2023-07-30T11:48:12;4.80;;;2.77;;
46363;SDS011;32071;49.036;9.344;2023-07-30T11:50:48;3.33;;;3.00;;
46363;SDS011;32071;49.036;9.344;2023-07-30T11:53:15;3.13;;;2.93;;
46363;SDS011;32071;49.036;9.344;2023-07-30T11:55:42;2.97;;;2.73;;
46363;SDS011;32071;49.036;9.344;2023-07-30T11:58:09;3.17;;;2.67;;
46363;SDS011;32071;49.036;9.344;2023-07-30T12:00:35;3.00;;;2.80;;
46363;SDS011;32071;49.036;9.344;2023-07-30T12:03:03;3.40;;;2.73;;
46363;SDS011;32071;49.036;9.344;2023-07-30T12:05:36;2.67;;;2.23;;
46363;SDS011;32071;49.036;9.344;2023-07-30T12:08:03;2.40;;;2.20;;
46363;SDS011;32071;49.036;9.344;2023-07-30T12:10:45;3.13;;;2.50;;
46363;SDS011;32071;49.036;9.344;2023-07-30T12:13:15;5.47;;;2.47;;
46363;SDS011;32071;49.036;9.344;2023-07-30T12:15:51;4.40;;;2.43;;
46363;SDS011;32071;49.036;9.344;2023-07-30T12:18:21;2.60;;;2.40;;
46363;SDS011;32071;49.036;9.344;2023-07-30T12:20:51;3.90;;;2.50;;
46363;SDS011;32071;49.036;9.344;2023-07-30T12:23:18;3.90;;;2.67;;
46363;SDS011;32071;49.036;9.344;2023-07-30T12:25:44;2.60;;;2.40;;
46363;SDS011;32071;49.036;9.344;2023-07-30T12:28:10;3.70;;;2.50;;
46363;SDS011;32071;49.036;9.344;2023-07-30T12:30:36;5.10;;;2.70;;
46363;SDS011;32071;49.036;9.344;2023-07-30T12:33:02;2.53;;;2.30;;
46363;SDS011;32071;49.036;9.344;2023-07-30T12:35:29;2.63;;;2.20;;
46363;SDS011;32071;49.036;9.344;2023-07-30T12:37:55;4.17;;;2.17;;
46363;SDS011;32071;49.036;9.344;2023-07-30T12:40:20;2.37;;;2.17;;
46363;SDS011;32071;49.036;9.344;2023-07-30T12:42:46;2.83;;;2.63;;
46363;SDS011;32071;49.036;9.344;2023-07-30T12:45:11;2.70;;;2.50;;
46363;SDS011;32071;49.036;9.344;2023-07-30T12:47:37;2.50;;;2.30;;
46363;SDS011;32071;49.036;9.344;2023-07-30T12:50:03;2.23;;;1.90;;
46363;SDS011;32071;49.036;9.344;2023-07-30T12:52:29;2.50;;;2.30;;
46363;SDS011;32071;49.036;9.344;2023-07-30T12:54:57;2.13;;;2.03;;
46363;SDS011;32071;49.036;9.344;2023-07-30T12:57:22;2.37;;;2.23;;
46363;SDS011;32071;49.036;9.344;2023-07-30T12:59:48;3.50;;;1.90;;
46363;SDS011;32071;49.036;9.344;2023-07-30T13:02:13;2.20;;;1.97;;
46363;SDS011;32071;49.036;9.344;2023-07-30T13:04:39;2.63;;;1.90;;
46363;SDS011;32071;49.036;9.344;2023-07-30T13:07:04;2.37;;;2.17;;
46363;SDS011;32071;49.036;9.344;2023-07-30T13:09:30;1.87;;;1.70;;
46363;SDS011;32071;49.036;9.344;2023-07-30T13:11:56;2.10;;;2.00;;
46363;SDS011;32071;49.036;9.344;2023-07-30T13:14:22;2.70;;;2.17;;
46363;SDS011;32071;49.036;9.344;2023-07-30T13:16:47;2.30;;;2.10;;
46363;SDS011;32071;49.036;9.344;2023-07-30T13:19:13;2.33;;;2.00;;
46363;SDS011;32071;49.036;9.344;2023-07-30T13:21:38;3.20;;;2.00;;
46363;SDS011;32071;49.036;9.344;2023-07-30T13:24:04;2.13;;;1.93;;
46363;SDS011;32071;49.036;9.344;2023-07-30T13:26:29;2.13;;;1.80;;
46363;SDS011;32071;49.036;9.344;2023-07-30T13:28:55;2.17;;;1.93;;
46363;SDS011;32071;49.036;9.344;2023-07-30T13:31:21;3.07;;;2.00;;
46363;SDS011;32071;49.036;9.344;2023-07-30T13:33:46;3.50;;;2.53;;
46363;SDS011;32071;49.036;9.344;2023-07-30T13:36:13;2.33;;;2.13;;
46363;SDS011;32071;49.036;9.344;2023-07-30T13:38:39;2.47;;;2.27;;
46363;SDS011;32071;49.036;9.344;2023-07-30T13:41:06;2.13;;;1.90;;
46363;SDS011;32071;49.036;9.344;2023-07-30T13:43:32;2.03;;;1.90;;
46363;SDS011;32071;49.036;9.344;2023-07-30T13:45:58;3.67;;;2.23;;
46363;SDS011;32071;49.036;9.344;2023-07-30T13:48:24;4.60;;;2.60;;
46363;SDS011;32071;49.036;9.344;2023-07-30T13:50:50;2.10;;;2.00;;
46363;SDS011;32071;49.036;9.344;2023-07-30T13:53:15;3.53;;;2.40;;
46363;SDS011;32071;49.036;9.344;2023-07-30T13:55:41;3.43;;;2.13;;
46363;SDS011;32071;49.036;9.344;2023-07-30T13:58:06;3.00;;;2.50;;
46363;SDS011;32071;49.036;9.344;2023-07-30T14:00:33;2.33;;;2.13;;
46363;SDS011;32071;49.036;9.344;2023-07-30T14:02:59;3.67;;;2.30;;
46363;SDS011;32071;49.036;9.344;2023-07-30T14:05:26;2.50;;;2.20;;
46363;SDS011;32071;49.036;9.344;2023-07-30T14:07:54;3.67;;;2.53;;
46363;SDS011;32071;49.036;9.344;2023-07-30T14:10:22;3.10;;;2.70;;
46363;SDS011;32071;49.036;9.344;2023-07-30T14:12:48;2.63;;;2.30;;
46363;SDS011;32071;49.036;9.344;2023-07-30T14:15:13;4.27;;;2.70;;
46363;SDS011;32071;49.036;9.344;2023-07-30T14:17:40;3.20;;;2.63;;
46363;SDS011;32071;49.036;9.344;2023-07-30T14:20:05;2.80;;;2.30;;
46363;SDS011;32071;49.036;9.344;2023-07-30T14:22:32;2.07;;;1.97;;
46363;SDS011;32071;49.036;9.344;2023-07-30T14:24:58;4.43;;;2.70;;
46363;SDS011;32071;49.036;9.344;2023-07-30T14:27:24;5.20;;;2.50;;
46363;SDS011;32071;49.036;9.344;2023-07-30T14:29:50;3.17;;;2.57;;
46363;SDS011;32071;49.036;9.344;2023-07-30T14:32:16;2.80;;;2.20;;
46363;SDS011;32071;49.036;9.344;2023-07-30T14:34:43;2.70;;;2.30;;
46363;SDS011;32071;49.036;9.344;2023-07-30T14:37:08;3.33;;;2.50;;
46363;SDS011;32071;49.036;9.344;2023-07-30T14:39:34;3.50;;;2.70;;
46363;SDS011;32071;49.036;9.344;2023-07-30T14:41:59;2.40;;;2.13;;
46363;SDS011;32071;49.036;9.344;2023-07-30T14:44:25;3.13;;;2.80;;
46363;SDS011;32071;49.036;9.344;2023-07-30T14:46:50;3.37;;;2.50;;
46363;SDS011;32071;49.036;9.344;2023-07-30T14:49:16;4.03;;;2.80;;